Time;durP1;ratioP1;P1;durP2;ratioP2;P2;SDS_P1;SDS_P2;PMS_P1;PMS_P2;Temp;Humidity;BMP_temperature;BMP_pressure;BME280_temperature;BME280_humidity;BME280_pressure;Samples;Min_cycle;Max_cycle;Signal;HPM_P1;HPM_P2
2023/10/03 00:00:58;;;;;;;4.75;3.75;;;;;;;;;;5053175;28;20053;-63
2023/10/03 00:03:25;;;;;;;4.70;4.20;;;;;;;;;;5054549;28;20044;-63
2023/10/03 00:05:51;;;;;;;6.75;5.15;;;;;;;;;;5056133;28;20517;-63
2023/10/03 00:08:18;;;;;;;13.13;7.38;;;;;;;;;;5057519;28;20117;-63
2023/10/03 00:10:45;;;;;;;8.68;5.75;;;;;;;;;;5052668;28;20047;-63
2023/10/03 00:13:12;;;;;;;8.13;6.00;;;;;;;;;;5060718;28;20040;-63
2023/10/03 00:15:43;;;;;;;14.13;9.13;;;;;;;;;;5060556;28;20562;-63
2023/10/03 00:18:19;;;;;;;16.52;10.57;;;;;;;;;;5055955;28;20124;-63
2023/10/03 00:20:45;;;;;;;13.35;9.25;;;;;;;;;;5053701;28;20049;-63
2023/10/03 00:23:11;;;;;;;10.57;8.07;;;;;;;;;;5052662;28;20037;-63
2023/10/03 00:25:38;;;;;;;10.98;7.45;;;;;;;;;;5056391;28;20041;-63
2023/10/03 00:28:05;;;;;;;11.30;7.57;;;;;;;;;;5054880;28;20049;-63
2023/10/03 00:30:31;;;;;;;8.95;6.30;;;;;;;;;;5056877;28;20107;-63
2023/10/03 00:32:58;;;;;;;15.50;10.05;;;;;;;;;;5055829;28;20045;-63
2023/10/03 00:35:26;;;;;;;15.50;10.18;;;;;;;;;;5057157;28;20134;-63
2023/10/03 00:37:53;;;;;;;15.30;9.95;;;;;;;;;;5056877;28;20040;-63
2023/10/03 00:43:00;;;;;;;15.55;10.10;;;;;;;;;;5057662;28;20049;-63
2023/10/03 00:45:29;;;;;;;17.35;11.63;;;;;;;;;;5053844;28;20044;-63
2023/10/03 00:47:56;;;;;;;12.90;8.85;;;;;;;;;;5055850;28;20041;-63
2023/10/03 00:50:28;;;;;;;18.83;13.02;;;;;;;;;;5059715;28;20470;-63
2023/10/03 00:52:58;;;;;;;17.08;10.57;;;;;;;;;;5056011;28;20040;-63
2023/10/03 00:55:32;;;;;;;22.00;14.32;;;;;;;;;;5054508;28;20060;-63
2023/10/03 01:00:50;;;;;;;17.65;11.52;;;;;;;;;;5051174;28;20045;-63
2023/10/03 01:03:33;;;;;;;16.77;11.02;;;;;;;;;;5055015;28;20466;-63
2023/10/03 01:06:08;;;;;;;17.83;11.52;;;;;;;;;;5050552;28;20048;-63
2023/10/03 01:08:39;;;;;;;20.60;12.77;;;;;;;;;;5050137;28;20049;-63
2023/10/03 01:11:07;;;;;;;13.32;9.52;;;;;;;;;;5055355;28;20071;-63
2023/10/03 01:13:34;;;;;;;14.20;9.60;;;;;;;;;;5049692;28;20500;-63
2023/10/03 01:16:01;;;;;;;10.25;7.05;;;;;;;;;;5059927;28;20067;-63
2023/10/03 01:18:31;;;;;;;11.00;8.15;;;;;;;;;;5057228;28;20090;-63
2023/10/03 01:21:00;;;;;;;12.75;7.80;;;;;;;;;;5057211;28;20049;-63
2023/10/03 01:23:39;;;;;;;13.40;8.05;;;;;;;;;;5053001;28;20503;-63
2023/10/03 01:26:05;;;;;;;7.35;6.05;;;;;;;;;;5058893;28;20048;-63
2023/10/03 01:28:31;;;;;;;6.60;4.68;;;;;;;;;;5052347;28;20045;-63
2023/10/03 01:30:57;;;;;;;12.32;7.97;;;;;;;;;;5049620;28;20041;-63
2023/10/03 01:33:26;;;;;;;14.27;9.05;;;;;;;;;;5055534;28;20029;-63
2023/10/03 01:35:52;;;;;;;14.70;8.32;;;;;;;;;;5051999;28;20037;-63
2023/10/03 01:38:18;;;;;;;10.90;7.65;;;;;;;;;;5058070;28;20072;-63
2023/10/03 01:40:48;;;;;;;9.93;7.47;;;;;;;;;;5054234;28;20072;-63
2023/10/03 01:43:14;;;;;;;10.48;6.90;;;;;;;;;;5055162;28;20037;-63
2023/10/03 01:45:40;;;;;;;12.23;8.30;;;;;;;;;;5051347;28;20397;-63
2023/10/03 01:48:07;;;;;;;14.27;8.63;;;;;;;;;;5051237;28;20039;-63
2023/10/03 01:50:36;;;;;;;9.98;6.95;;;;;;;;;;5060159;28;20041;-63
2023/10/03 01:53:02;;;;;;;10.65;7.15;;;;;;;;;;5057049;28;20032;-63
2023/10/03 01:55:28;;;;;;;9.07;5.82;;;;;;;;;;5048610;28;20065;-63
2023/10/03 01:57:54;;;;;;;15.82;9.15;;;;;;;;;;5050701;28;20102;-63
2023/10/03 02:02:53;;;;;;;10.05;6.47;;;;;;;;;;5052247;28;20047;-63
2023/10/03 02:05:23;;;;;;;10.85;6.97;;;;;;;;;;5054387;28;20484;-63
2023/10/03 02:07:51;;;;;;;9.95;7.38;;;;;;;;;;5055644;28;20137;-63
2023/10/03 02:10:17;;;;;;;12.35;7.68;;;;;;;;;;5055450;28;20049;-63
2023/10/03 02:12:48;;;;;;;8.32;6.18;;;;;;;;;;5054783;28;20037;-63
2023/10/03 02:15:24;;;;;;;13.27;7.53;;;;;;;;;;5053100;28;20048;-63
2023/10/03 02:17:54;;;;;;;10.75;7.45;;;;;;;;;;5051000;28;20040;-63
2023/10/03 02:20:26;;;;;;;11.48;7.85;;;;;;;;;;5057747;28;20051;-63
2023/10/03 02:22:55;;;;;;;8.45;6.15;;;;;;;;;;5055014;28;20485;-63
2023/10/03 02:25:22;;;;;;;11.35;7.60;;;;;;;;;;5056714;28;20037;-63
2023/10/03 02:27:49;;;;;;;14.02;9.10;;;;;;;;;;5051770;28;20055;-64
2023/10/03 02:30:20;;;;;;;15.82;9.98;;;;;;;;;;5057180;28;20047;-63
2023/10/03 02:32:46;;;;;;;15.10;9.40;;;;;;;;;;5052191;28;20041;-63
2023/10/03 02:35:14;;;;;;;13.55;9.52;;;;;;;;;;5052197;28;20083;-63
2023/10/03 02:37:40;;;;;;;16.33;10.38;;;;;;;;;;5051862;28;20047;-63
2023/10/03 02:40:07;;;;;;;16.25;10.43;;;;;;;;;;5054927;28;20041;-63
2023/10/03 02:42:37;;;;;;;17.58;11.27;;;;;;;;;;5053731;28;20064;-63
2023/10/03 02:45:04;;;;;;;14.68;9.15;;;;;;;;;;5056801;28;20412;-64
2023/10/03 02:47:30;;;;;;;12.45;8.35;;;;;;;;;;5058691;28;20538;-63
2023/10/03 02:49:58;;;;;;;13.40;8.85;;;;;;;;;;5054961;28;20591;-63
2023/10/03 02:52:24;;;;;;;15.57;9.63;;;;;;;;;;5058258;28;20047;-63
2023/10/03 02:54:51;;;;;;;17.25;10.45;;;;;;;;;;5056955;28;20032;-65
2023/10/03 02:57:17;;;;;;;17.48;11.13;;;;;;;;;;5055076;28;20442;-63
2023/10/03 02:59:44;;;;;;;18.58;12.10;;;;;;;;;;5051162;28;20052;-63
2023/10/03 03:02:14;;;;;;;21.63;13.50;;;;;;;;;;5052344;28;20080;-63
2023/10/03 03:04:41;;;;;;;15.75;10.05;;;;;;;;;;5047870;28;20068;-63
2023/10/03 03:07:07;;;;;;;23.17;12.82;;;;;;;;;;5050394;28;20079;-63
2023/10/03 03:09:35;;;;;;;18.30;11.60;;;;;;;;;;5050747;28;20062;-63
2023/10/03 03:12:01;;;;;;;20.38;13.05;;;;;;;;;;5051739;28;20059;-63
2023/10/03 03:14:27;;;;;;;18.65;10.98;;;;;;;;;;5051316;28;20689;-63
2023/10/03 03:16:54;;;;;;;21.65;13.68;;;;;;;;;;5054522;28;20080;-63
2023/10/03 03:19:20;;;;;;;20.08;13.15;;;;;;;;;;5051350;28;20045;-63
2023/10/03 03:21:46;;;;;;;18.95;12.60;;;;;;;;;;5053093;28;20037;-63
2023/10/03 03:24:18;;;;;;;19.20;11.43;;;;;;;;;;5051993;28;20098;-63
2023/10/03 03:26:47;;;;;;;19.00;11.87;;;;;;;;;;5054640;28;20332;-63
2023/10/03 03:29:20;;;;;;;14.07;9.85;;;;;;;;;;5056527;28;20818;-63
2023/10/03 03:31:47;;;;;;;15.18;9.55;;;;;;;;;;5052939;28;20534;-63
2023/10/03 03:34:13;;;;;;;18.88;12.02;;;;;;;;;;5055255;28;20045;-63
2023/10/03 03:36:40;;;;;;;20.85;12.63;;;;;;;;;;5050171;28;20564;-63
2023/10/03 03:39:13;;;;;;;19.50;11.00;;;;;;;;;;5051914;28;21297;-63
2023/10/03 03:41:40;;;;;;;18.63;12.27;;;;;;;;;;5051670;28;20051;-63
2023/10/03 03:44:11;;;;;;;20.55;12.75;;;;;;;;;;5054347;28;20111;-63
2023/10/03 03:46:40;;;;;;;21.20;12.60;;;;;;;;;;5057473;28;20040;-63
2023/10/03 03:49:06;;;;;;;21.88;13.27;;;;;;;;;;5055929;28;20489;-64
2023/10/03 03:51:32;;;;;;;22.08;12.65;;;;;;;;;;5056124;28;20051;-63
2023/10/03 03:54:00;;;;;;;22.40;13.82;;;;;;;;;;5052455;28;20048;-63
2023/10/03 03:56:26;;;;;;;21.77;12.20;;;;;;;;;;5051332;28;20501;-63
2023/10/03 03:58:52;;;;;;;24.55;14.32;;;;;;;;;;5056796;28;20048;-63
2023/10/03 04:01:19;;;;;;;20.30;12.75;;;;;;;;;;5054191;28;20040;-63
2023/10/03 04:03:46;;;;;;;22.48;13.07;;;;;;;;;;5047703;28;20076;-63
2023/10/03 04:06:12;;;;;;;19.17;12.13;;;;;;;;;;5053549;28;20053;-63
2023/10/03 04:08:40;;;;;;;19.10;11.00;;;;;;;;;;5051599;28;20039;-63
2023/10/03 04:11:07;;;;;;;23.77;13.80;;;;;;;;;;5050226;28;20041;-63
2023/10/03 04:13:38;;;;;;;21.73;12.88;;;;;;;;;;5054194;28;20051;-63
2023/10/03 04:16:06;;;;;;;20.37;12.53;;;;;;;;;;5048973;28;20055;-63
2023/10/03 04:18:33;;;;;;;19.38;12.00;;;;;;;;;;5048393;28;20127;-63
2023/10/03 04:20:59;;;;;;;17.95;11.13;;;;;;;;;;5051908;28;20114;-63
2023/10/03 04:23:26;;;;;;;18.33;10.75;;;;;;;;;;5054295;28;20048;-63
2023/10/03 04:25:52;;;;;;;15.75;10.13;;;;;;;;;;5054464;28;20053;-63
2023/10/03 04:28:18;;;;;;;19.90;12.35;;;;;;;;;;5055086;28;20051;-65
2023/10/03 04:30:45;;;;;;;22.40;12.50;;;;;;;;;;5050483;28;20049;-63
2023/10/03 04:33:17;;;;;;;18.90;11.23;;;;;;;;;;5050776;28;20045;-63
2023/10/03 04:35:43;;;;;;;22.88;13.32;;;;;;;;;;5054277;28;20471;-63
2023/10/03 04:38:14;;;;;;;22.00;12.35;;;;;;;;;;5052529;28;20037;-63
2023/10/03 04:40:41;;;;;;;19.25;12.45;;;;;;;;;;5049777;28;20053;-63
2023/10/03 04:43:10;;;;;;;25.83;14.88;;;;;;;;;;5057222;28;20056;-63
2023/10/03 04:45:36;;;;;;;21.30;12.90;;;;;;;;;;5055788;28;20045;-63
2023/10/03 04:48:03;;;;;;;29.85;14.00;;;;;;;;;;5056136;28;20767;-63
2023/10/03 04:50:29;;;;;;;24.08;14.25;;;;;;;;;;5054569;28;20044;-63
2023/10/03 04:52:55;;;;;;;16.98;11.93;;;;;;;;;;5056064;28;20166;-63
2023/10/03 04:55:22;;;;;;;17.85;11.02;;;;;;;;;;5056703;28;20091;-63
2023/10/03 04:57:50;;;;;;;23.25;13.30;;;;;;;;;;5060850;28;20060;-63
2023/10/03 05:00:17;;;;;;;25.02;13.82;;;;;;;;;;5053839;28;20098;-63
2023/10/03 05:02:49;;;;;;;24.00;13.57;;;;;;;;;;5053569;28;20378;-63
2023/10/03 05:05:22;;;;;;;21.40;12.00;;;;;;;;;;5051124;28;20123;-63
2023/10/03 05:07:49;;;;;;;26.65;13.82;;;;;;;;;;5051822;28;20412;-63
2023/10/03 05:10:17;;;;;;;23.88;13.48;;;;;;;;;;5051385;28;20174;-63
2023/10/03 05:12:45;;;;;;;23.67;12.63;;;;;;;;;;5052058;28;20159;-63
2023/10/03 05:15:12;;;;;;;18.30;11.40;;;;;;;;;;5051976;28;20766;-63
2023/10/03 05:17:38;;;;;;;22.55;12.40;;;;;;;;;;5050144;28;20524;-64
2023/10/03 05:20:05;;;;;;;17.85;11.27;;;;;;;;;;5049855;28;20796;-63
2023/10/03 05:22:34;;;;;;;22.25;11.80;;;;;;;;;;5051894;28;20033;-63
2023/10/03 05:25:03;;;;;;;21.55;12.18;;;;;;;;;;5052180;28;20047;-63
2023/10/03 05:27:30;;;;;;;23.13;12.63;;;;;;;;;;5056661;28;20055;-63
2023/10/03 05:30:05;;;;;;;27.70;14.05;;;;;;;;;;5054488;28;21363;-63
2023/10/03 05:32:31;;;;;;;30.98;14.45;;;;;;;;;;5054237;28;20041;-63
2023/10/03 05:34:58;;;;;;;21.48;12.45;;;;;;;;;;5052688;28;20040;-63
2023/10/03 05:37:27;;;;;;;24.50;12.93;;;;;;;;;;5049884;28;20482;-63
2023/10/03 05:39:53;;;;;;;23.15;13.57;;;;;;;;;;5056627;28;20051;-63
2023/10/03 05:42:20;;;;;;;24.67;15.27;;;;;;;;;;5054986;28;20527;-63
2023/10/03 05:44:46;;;;;;;27.27;14.13;;;;;;;;;;5054538;28;20555;-63
2023/10/03 05:47:13;;;;;;;20.20;12.68;;;;;;;;;;5053610;28;20040;-63
2023/10/03 05:49:39;;;;;;;24.92;13.48;;;;;;;;;;5054362;28;20867;-63
2023/10/03 05:52:06;;;;;;;19.17;11.65;;;;;;;;;;5056463;28;20036;-63
2023/10/03 05:54:32;;;;;;;21.95;12.98;;;;;;;;;;5053152;28;20040;-63
2023/10/03 05:56:58;;;;;;;23.63;12.38;;;;;;;;;;5053587;28;20068;-63
2023/10/03 05:59:26;;;;;;;21.10;12.15;;;;;;;;;;5053366;28;20048;-63
2023/10/03 06:01:52;;;;;;;29.67;15.10;;;;;;;;;;5058496;28;20037;-63
2023/10/03 06:04:18;;;;;;;23.83;13.82;;;;;;;;;;5057149;28;20056;-63
2023/10/03 06:06:44;;;;;;;25.10;12.90;;;;;;;;;;5058305;28;20062;-63
2023/10/03 06:09:10;;;;;;;20.20;13.43;;;;;;;;;;5056535;28;20139;-63
2023/10/03 06:11:37;;;;;;;23.38;12.57;;;;;;;;;;5059627;28;20032;-63
2023/10/03 06:14:03;;;;;;;21.33;12.13;;;;;;;;;;5056961;28;20033;-63
2023/10/03 06:16:30;;;;;;;19.88;10.40;;;;;;;;;;5052507;28;20541;-63
2023/10/03 06:18:56;;;;;;;24.08;12.30;;;;;;;;;;5051072;28;20159;-63
2023/10/03 06:21:23;;;;;;;18.88;11.75;;;;;;;;;;5052873;28;20047;-63
2023/10/03 06:23:50;;;;;;;20.70;11.13;;;;;;;;;;5051075;28;20120;-64
2023/10/03 06:26:20;;;;;;;17.45;10.43;;;;;;;;;;5051827;28;20037;-63
2023/10/03 06:28:46;;;;;;;16.75;10.30;;;;;;;;;;5049900;28;20048;-63
2023/10/03 06:31:12;;;;;;;15.45;9.73;;;;;;;;;;5053830;28;20550;-63
2023/10/03 06:33:44;;;;;;;15.85;8.75;;;;;;;;;;5047632;28;20052;-63
2023/10/03 06:36:12;;;;;;;14.57;9.88;;;;;;;;;;5053570;28;20037;-63
2023/10/03 06:38:38;;;;;;;11.52;8.77;;;;;;;;;;5049644;28;20077;-63
2023/10/03 06:41:05;;;;;;;14.13;8.98;;;;;;;;;;5050101;28;20044;-63
2023/10/03 06:43:32;;;;;;;16.92;9.90;;;;;;;;;;5052865;28;20524;-63
2023/10/03 06:45:58;;;;;;;13.02;8.70;;;;;;;;;;5050321;28;20048;-63
2023/10/03 06:48:24;;;;;;;13.00;8.23;;;;;;;;;;5055012;28;20055;-63
2023/10/03 06:50:54;;;;;;;17.35;9.75;;;;;;;;;;5054372;28;20055;-63
2023/10/03 06:53:22;;;;;;;11.73;8.32;;;;;;;;;;5052630;28;20036;-63
2023/10/03 06:55:51;;;;;;;13.15;7.70;;;;;;;;;;5047576;28;20535;-63
2023/10/03 06:58:17;;;;;;;12.73;8.15;;;;;;;;;;5034957;28;20524;-64
2023/10/03 07:00:43;;;;;;;17.67;9.55;;;;;;;;;;5035480;28;20045;-63
2023/10/03 07:03:10;;;;;;;13.13;8.68;;;;;;;;;;5049794;28;20064;-63
2023/10/03 07:05:36;;;;;;;16.55;8.65;;;;;;;;;;5053055;28;20431;-63
2023/10/03 07:08:03;;;;;;;12.70;6.50;;;;;;;;;;5048740;28;20048;-63
2023/10/03 07:10:29;;;;;;;12.18;6.93;;;;;;;;;;5051711;28;20072;-63
2023/10/03 07:12:57;;;;;;;14.07;7.03;;;;;;;;;;5055692;28;20140;-63
2023/10/03 07:15:23;;;;;;;12.25;6.55;;;;;;;;;;5052708;28;20040;-63
2023/10/03 07:17:50;;;;;;;12.10;5.95;;;;;;;;;;5046393;28;20045;-63
2023/10/03 07:20:17;;;;;;;12.63;6.45;;;;;;;;;;5051934;28;20036;-63
2023/10/03 07:22:43;;;;;;;9.63;4.65;;;;;;;;;;5045498;28;20056;-63
2023/10/03 07:25:09;;;;;;;7.35;4.28;;;;;;;;;;5052716;28;20134;-63
2023/10/03 07:27:41;;;;;;;11.20;4.32;;;;;;;;;;5050604;28;20037;-63
2023/10/03 07:30:07;;;;;;;9.00;4.22;;;;;;;;;;5047660;28;20489;-63
2023/10/03 07:32:34;;;;;;;10.75;4.32;;;;;;;;;;5043767;28;20044;-63
2023/10/03 07:35:00;;;;;;;11.07;3.85;;;;;;;;;;5065105;28;20128;-65
2023/10/03 07:37:26;;;;;;;6.00;3.50;;;;;;;;;;5051661;28;20045;-65
2023/10/03 07:39:52;;;;;;;4.00;2.30;;;;;;;;;;5049490;28;20084;-65
2023/10/03 07:42:21;;;;;;;9.48;4.18;;;;;;;;;;5045224;28;20055;-65
2023/10/03 07:44:51;;;;;;;4.43;2.83;;;;;;;;;;5044161;28;20968;-65
2023/10/03 07:47:17;;;;;;;5.13;2.40;;;;;;;;;;5044213;28;20045;-64
2023/10/03 07:49:43;;;;;;;5.15;2.00;;;;;;;;;;5050924;28;20094;-64
2023/10/03 07:52:09;;;;;;;2.80;1.65;;;;;;;;;;5045546;28;20045;-64
2023/10/03 07:54:37;;;;;;;2.75;1.50;;;;;;;;;;5044286;28;20040;-64
2023/10/03 07:57:05;;;;;;;4.85;2.10;;;;;;;;;;5045017;28;20115;-64
2023/10/03 07:59:31;;;;;;;2.47;1.60;;;;;;;;;;5050424;28;20053;-64
2023/10/03 08:02:04;;;;;;;4.38;1.50;;;;;;;;;;5041203;28;20094;-63
2023/10/03 08:04:31;;;;;;;4.20;1.60;;;;;;;;;;5039662;28;20049;-64
2023/10/03 08:06:57;;;;;;;3.30;1.60;;;;;;;;;;5045991;28;20055;-64
2023/10/03 08:09:24;;;;;;;1.70;1.10;;;;;;;;;;5044599;28;20476;-64
2023/10/03 08:11:52;;;;;;;3.40;1.13;;;;;;;;;;5049010;28;20112;-64
2023/10/03 08:14:18;;;;;;;3.08;1.40;;;;;;;;;;5050469;28;20045;-64
2023/10/03 08:16:45;;;;;;;2.53;1.17;;;;;;;;;;5048042;28;20626;-64
2023/10/03 08:19:26;;;;;;;3.67;1.17;;;;;;;;;;5050454;28;20044;-64
2023/10/03 08:21:53;;;;;;;3.58;0.73;;;;;;;;;;5045365;28;20045;-64
2023/10/03 08:24:24;;;;;;;1.67;0.88;;;;;;;;;;5048780;28;20072;-64
2023/10/03 08:26:51;;;;;;;3.08;0.88;;;;;;;;;;5048312;28;20036;-64
2023/10/03 08:29:23;;;;;;;1.88;0.60;;;;;;;;;;5044746;28;20064;-64
2023/10/03 08:31:49;;;;;;;;;;;;;;;;;;5055262;28;20041;-64
2023/10/03 08:34:16;;;;;;;2.80;0.80;;;;;;;;;;5039151;28;19921;-64
2023/10/03 08:36:42;;;;;;;1.13;0.40;;;;;;;;;;5048055;28;20527;-64
2023/10/03 08:39:14;;;;;;;0.52;0.40;;;;;;;;;;5048506;28;20045;-64
2023/10/03 08:41:48;;;;;;;2.13;0.70;;;;;;;;;;5047611;28;20099;-64
2023/10/03 08:44:15;;;;;;;2.47;0.65;;;;;;;;;;5051278;28;20039;-64
2023/10/03 08:46:45;;;;;;;1.70;0.60;;;;;;;;;;5049182;28;20485;-64
2023/10/03 08:49:12;;;;;;;1.88;0.63;;;;;;;;;;5054234;28;20098;-64
2023/10/03 08:51:38;;;;;;;1.50;0.57;;;;;;;;;;5051214;28;20029;-64
2023/10/03 08:54:12;;;;;;;1.63;0.73;;;;;;;;;;5047890;28;20043;-64
2023/10/03 08:56:40;;;;;;;1.60;0.47;;;;;;;;;;5047421;28;20056;-64
2023/10/03 08:59:09;;;;;;;2.40;0.43;;;;;;;;;;5059824;28;20102;-64
2023/10/03 09:01:39;;;;;;;1.77;0.45;;;;;;;;;;5051448;28;20051;-64
2023/10/03 09:04:07;;;;;;;1.77;0.60;;;;;;;;;;5046865;28;20049;-64
2023/10/03 09:06:38;;;;;;;2.00;0.50;;;;;;;;;;5049725;28;20111;-64
2023/10/03 09:09:08;;;;;;;2.03;0.47;;;;;;;;;;5047509;28;20089;-64
2023/10/03 09:11:37;;;;;;;1.60;0.57;;;;;;;;;;5042870;28;20440;-64
2023/10/03 09:14:07;;;;;;;2.05;0.50;;;;;;;;;;5047129;28;20116;-63
2023/10/03 09:16:39;;;;;;;1.48;0.35;;;;;;;;;;5047437;28;20382;-65
2023/10/03 09:19:06;;;;;;;2.28;0.57;;;;;;;;;;5054165;28;20071;-66
2023/10/03 09:21:33;;;;;;;2.28;0.68;;;;;;;;;;5048060;28;20115;-65
2023/10/03 09:24:09;;;;;;;0.65;0.40;;;;;;;;;;5052618;28;20139;-64
2023/10/03 09:26:45;;;;;;;0.70;0.22;;;;;;;;;;5057382;28;20040;-64
2023/10/03 09:29:11;;;;;;;3.53;0.30;;;;;;;;;;5049883;28;20098;-64
2023/10/03 09:31:37;;;;;;;1.42;0.50;;;;;;;;;;5046296;28;20051;-63
2023/10/03 09:34:03;;;;;;;1.60;0.52;;;;;;;;;;5049914;28;20036;-63
2023/10/03 09:36:30;;;;;;;0.38;0.30;;;;;;;;;;5055260;28;20109;-63
2023/10/03 09:38:56;;;;;;;1.77;0.57;;;;;;;;;;5045537;28;20045;-63
2023/10/03 09:41:23;;;;;;;1.35;0.55;;;;;;;;;;5046318;28;20126;-63
2023/10/03 09:43:53;;;;;;;0.98;0.38;;;;;;;;;;5045777;28;20111;-63
2023/10/03 09:46:23;;;;;;;1.00;0.30;;;;;;;;;;5045376;28;20230;-63
2023/10/03 09:49:08;;;;;;;1.38;0.45;;;;;;;;;;5045279;28;20051;-63
2023/10/03 09:51:46;;;;;;;1.02;0.30;;;;;;;;;;5044088;28;20139;-63
2023/10/03 09:54:30;;;;;;;0.38;0.10;;;;;;;;;;5037395;28;20078;-63
2023/10/03 09:56:57;;;;;;;0.63;0.10;;;;;;;;;;5045353;28;20170;-62
2023/10/03 09:59:24;;;;;;;0.22;0.10;;;;;;;;;;5046245;28;20052;-62
2023/10/03 10:01:54;;;;;;;2.88;0.50;;;;;;;;;;5046623;28;20114;-62
2023/10/03 10:04:21;;;;;;;2.92;0.77;;;;;;;;;;5047644;28;20092;-62
2023/10/03 10:06:51;;;;;;;0.93;0.25;;;;;;;;;;5045482;28;20142;-64
2023/10/03 10:09:28;;;;;;;0.40;0.20;;;;;;;;;;5046356;28;20619;-64
2023/10/03 10:12:12;;;;;;;1.23;0.60;;;;;;;;;;5043727;28;20044;-64
2023/10/03 10:14:57;;;;;;;0.63;0.28;;;;;;;;;;5044118;28;20033;-64
2023/10/03 10:17:26;;;;;;;0.52;0.38;;;;;;;;;;5044637;28;20069;-64
2023/10/03 10:20:12;;;;;;;1.23;0.30;;;;;;;;;;5044621;28;20464;-64
2023/10/03 10:22:56;;;;;;;1.85;0.47;;;;;;;;;;5046022;28;20047;-64
2023/10/03 10:25:30;;;;;;;2.78;0.82;;;;;;;;;;5046122;28;20048;-64
2023/10/03 10:28:05;;;;;;;1.58;0.75;;;;;;;;;;5045440;28;20056;-64
2023/10/03 10:30:32;;;;;;;0.98;0.52;;;;;;;;;;5045806;28;20049;-64
2023/10/03 10:33:17;;;;;;;0.98;0.50;;;;;;;;;;5037733;28;20057;-64
2023/10/03 10:35:59;;;;;;;0.88;0.60;;;;;;;;;;5045676;28;20068;-64
2023/10/03 10:38:31;;;;;;;1.05;0.40;;;;;;;;;;5045826;28;20461;-64
2023/10/03 10:40:57;;;;;;;;;;;;;;;;;;5037055;28;20132;-64
2023/10/03 10:43:24;;;;;;;0.68;0.35;;;;;;;;;;5044421;28;19971;-64
2023/10/03 10:46:10;;;;;;;0.98;0.60;;;;;;;;;;5044223;28;20082;-59
2023/10/03 10:48:39;;;;;;;2.60;1.08;;;;;;;;;;5044702;28;20408;-60
2023/10/03 10:51:10;;;;;;;2.40;0.82;;;;;;;;;;5045623;28;20045;-59
2023/10/03 10:53:39;;;;;;;6.38;1.85;;;;;;;;;;5045112;28;20069;-60
2023/10/03 10:56:09;;;;;;;3.97;1.42;;;;;;;;;;5044510;28;20131;-60
2023/10/03 10:58:51;;;;;;;3.90;1.95;;;;;;;;;;5036552;28;20110;-60
2023/10/03 11:01:21;;;;;;;3.05;1.38;;;;;;;;;;5042921;28;20037;-59
2023/10/03 11:03:47;;;;;;;1.30;1.05;;;;;;;;;;5042762;28;20048;-59
2023/10/03 11:06:17;;;;;;;1.58;0.80;;;;;;;;;;5044198;28;20068;-60
2023/10/03 11:08:44;;;;;;;2.22;1.23;;;;;;;;;;5043057;28;20071;-60
2023/10/03 11:11:10;;;;;;;1.80;0.90;;;;;;;;;;5045530;28;20045;-60
2023/10/03 11:13:49;;;;;;;2.88;1.23;;;;;;;;;;5045911;28;20037;-60
2023/10/03 11:16:23;;;;;;;3.10;1.42;;;;;;;;;;5043420;28;20037;-59
2023/10/03 11:18:49;;;;;;;0.90;0.65;;;;;;;;;;5042284;28;20037;-60
2023/10/03 11:21:16;;;;;;;1.27;1.00;;;;;;;;;;5039937;28;20690;-59
2023/10/03 11:24:03;;;;;;;0.98;0.50;;;;;;;;;;5036284;28;20043;-59
2023/10/03 11:26:41;;;;;;;1.13;0.65;;;;;;;;;;5044197;28;20049;-59
2023/10/03 11:29:07;;;;;;;0.60;0.60;;;;;;;;;;5036950;28;20037;-58
2023/10/03 11:31:37;;;;;;;0.73;0.50;;;;;;;;;;5037511;28;20052;-59
2023/10/03 11:34:03;;;;;;;0.60;0.45;;;;;;;;;;5040401;28;20047;-59
2023/10/03 11:36:40;;;;;;;0.93;0.70;;;;;;;;;;5038318;28;20131;-59
2023/10/03 11:39:06;;;;;;;1.35;0.60;;;;;;;;;;5044718;28;20130;-58
2023/10/03 11:41:33;;;;;;;1.33;1.00;;;;;;;;;;5039173;28;20033;-59
2023/10/03 11:44:00;;;;;;;1.13;0.50;;;;;;;;;;5043530;28;20049;-58
2023/10/03 11:46:26;;;;;;;1.17;0.80;;;;;;;;;;5043863;28;20049;-59
2023/10/03 11:49:01;;;;;;;1.17;0.52;;;;;;;;;;5047472;28;20305;-59
2023/10/03 11:51:29;;;;;;;1.70;0.85;;;;;;;;;;5046247;28;20087;-59
2023/10/03 11:53:55;;;;;;;3.67;1.30;;;;;;;;;;5048942;28;20044;-59
2023/10/03 11:56:21;;;;;;;2.03;1.10;;;;;;;;;;5049217;28;20139;-59
2023/10/03 11:58:47;;;;;;;1.48;0.93;;;;;;;;;;5048246;28;20048;-59
2023/10/03 12:01:13;;;;;;;1.40;1.00;;;;;;;;;;5045191;28;20033;-59
2023/10/03 12:03:40;;;;;;;1.27;1.10;;;;;;;;;;5045437;28;20045;-59
2023/10/03 12:06:06;;;;;;;3.97;1.35;;;;;;;;;;5047578;28;20041;-58
2023/10/03 12:08:32;;;;;;;1.77;0.82;;;;;;;;;;5050471;28;20044;-59
2023/10/03 12:10:58;;;;;;;1.52;0.90;;;;;;;;;;5048384;28;20037;-59
2023/10/03 12:13:24;;;;;;;2.42;1.20;;;;;;;;;;5048558;28;20558;-58
2023/10/03 12:15:50;;;;;;;1.38;0.77;;;;;;;;;;5046334;28;20037;-59
2023/10/03 12:18:16;;;;;;;0.95;0.80;;;;;;;;;;5046063;28;20598;-61
2023/10/03 12:20:44;;;;;;;1.00;0.73;;;;;;;;;;5047652;28;20053;-58
2023/10/03 12:23:10;;;;;;;0.55;0.50;;;;;;;;;;5048208;28;20053;-59
2023/10/03 12:25:36;;;;;;;1.08;0.50;;;;;;;;;;5044173;28;20091;-58
2023/10/03 12:28:02;;;;;;;0.80;0.40;;;;;;;;;;5043737;28;20124;-58
2023/10/03 12:30:28;;;;;;;0.52;0.40;;;;;;;;;;5046812;28;20081;-59
2023/10/03 12:32:54;;;;;;;1.08;0.77;;;;;;;;;;5046196;28;20713;-59
2023/10/03 12:35:21;;;;;;;1.88;0.80;;;;;;;;;;5046950;28;20048;-59
2023/10/03 12:37:48;;;;;;;1.38;0.95;;;;;;;;;;5046856;28;20064;-59
2023/10/03 12:40:18;;;;;;;3.40;1.15;;;;;;;;;;5046016;28;20045;-58
2023/10/03 12:42:46;;;;;;;1.63;0.80;;;;;;;;;;5047095;28;20049;-59
2023/10/03 12:45:15;;;;;;;1.75;0.82;;;;;;;;;;5048142;28;20067;-58
2023/10/03 12:47:47;;;;;;;2.38;0.90;;;;;;;;;;5047680;28;20041;-58
2023/10/03 12:50:14;;;;;;;1.75;0.77;;;;;;;;;;5048237;28;20123;-59
2023/10/03 12:52:42;;;;;;;0.93;0.68;;;;;;;;;;5048153;28;20041;-58
2023/10/03 12:55:09;;;;;;;1.20;0.73;;;;;;;;;;5047241;28;20075;-58
2023/10/03 12:57:36;;;;;;;1.13;0.60;;;;;;;;;;5047087;28;20119;-58
2023/10/03 13:00:03;;;;;;;4.50;0.85;;;;;;;;;;5048458;28;20057;-58
2023/10/03 13:02:29;;;;;;;3.03;1.00;;;;;;;;;;5047585;28;20059;-58
2023/10/03 13:04:56;;;;;;;2.15;0.70;;;;;;;;;;5047796;28;20037;-58
2023/10/03 13:07:22;;;;;;;2.55;1.17;;;;;;;;;;5046679;28;20122;-58
2023/10/03 13:09:48;;;;;;;1.92;0.82;;;;;;;;;;5047471;28;20140;-58
2023/10/03 13:12:14;;;;;;;4.53;1.13;;;;;;;;;;5047944;28;20574;-58
2023/10/03 13:14:40;;;;;;;3.35;0.93;;;;;;;;;;5047599;28;20044;-58
2023/10/03 13:17:09;;;;;;;1.55;1.00;;;;;;;;;;5047404;28;20037;-58
2023/10/03 13:19:36;;;;;;;2.03;0.90;;;;;;;;;;5047547;28;20045;-58
2023/10/03 13:22:03;;;;;;;1.95;0.85;;;;;;;;;;5047612;28;20045;-59
2023/10/03 13:24:32;;;;;;;2.45;0.95;;;;;;;;;;5047453;28;20439;-58
2023/10/03 13:26:58;;;;;;;1.60;0.90;;;;;;;;;;5047430;28;20072;-58
2023/10/03 13:29:24;;;;;;;1.42;0.80;;;;;;;;;;5046983;28;20073;-58
2023/10/03 13:31:51;;;;;;;2.00;1.00;;;;;;;;;;5047560;28;20067;-58
2023/10/03 13:34:17;;;;;;;2.25;1.10;;;;;;;;;;5049986;28;20643;-59
2023/10/03 13:36:44;;;;;;;2.05;1.02;;;;;;;;;;5043065;28;20443;-58
2023/10/03 13:39:12;;;;;;;3.22;1.20;;;;;;;;;;5039801;28;20071;-58
2023/10/03 13:41:42;;;;;;;1.92;1.30;;;;;;;;;;5035910;28;20081;-58
2023/10/03 13:44:11;;;;;;;1.67;1.20;;;;;;;;;;5036541;28;20045;-58
2023/10/03 13:46:37;;;;;;;4.53;1.40;;;;;;;;;;5033478;28;20049;-58
2023/10/03 13:49:06;;;;;;;1.50;1.02;;;;;;;;;;5043385;28;20128;-58
2023/10/03 13:51:32;;;;;;;2.42;1.08;;;;;;;;;;5044811;28;20066;-58
2023/10/03 13:53:59;;;;;;;2.90;1.05;;;;;;;;;;5039863;28;20052;-58
2023/10/03 13:56:25;;;;;;;2.95;1.33;;;;;;;;;;5039425;28;20061;-58
2023/10/03 13:58:52;;;;;;;2.38;1.10;;;;;;;;;;5045088;28;20072;-58
2023/10/03 14:01:19;;;;;;;7.30;1.23;;;;;;;;;;5043991;28;20449;-59
2023/10/03 14:03:46;;;;;;;1.95;1.00;;;;;;;;;;5046657;28;20045;-58
2023/10/03 14:06:16;;;;;;;2.63;1.05;;;;;;;;;;5044058;28;20043;-58
2023/10/03 14:08:43;;;;;;;3.55;1.30;;;;;;;;;;5042820;28;20512;-58
2023/10/03 14:11:09;;;;;;;1.17;0.75;;;;;;;;;;5046034;28;20040;-59
2023/10/03 14:13:35;;;;;;;1.55;0.90;;;;;;;;;;5042594;28;20400;-58
2023/10/03 14:16:03;;;;;;;1.15;0.63;;;;;;;;;;5042862;28;20127;-58
2023/10/03 14:18:29;;;;;;;2.05;0.85;;;;;;;;;;5045498;28;20372;-58
2023/10/03 14:20:55;;;;;;;2.80;1.00;;;;;;;;;;5046069;28;20468;-59
2023/10/03 14:23:21;;;;;;;4.03;1.15;;;;;;;;;;5041878;28;20393;-58
2023/10/03 14:25:48;;;;;;;1.40;0.90;;;;;;;;;;5042581;28;20216;-58
2023/10/03 14:28:15;;;;;;;2.05;0.98;;;;;;;;;;5039630;28;20041;-58
2023/10/03 14:30:41;;;;;;;2.38;1.10;;;;;;;;;;5039303;28;20046;-59
2023/10/03 14:33:09;;;;;;;4.28;1.40;;;;;;;;;;5040994;28;20128;-58
2023/10/03 14:35:38;;;;;;;3.90;1.58;;;;;;;;;;5039509;28;20037;-59
2023/10/03 14:38:05;;;;;;;7.57;1.80;;;;;;;;;;5039884;28;20033;-58
2023/10/03 14:40:31;;;;;;;4.18;1.67;;;;;;;;;;5039858;28;20041;-58
2023/10/03 14:42:57;;;;;;;7.82;2.13;;;;;;;;;;5041796;28;20119;-59
2023/10/03 14:45:23;;;;;;;3.83;1.70;;;;;;;;;;5041787;28;20475;-59
2023/10/03 14:47:49;;;;;;;2.80;1.30;;;;;;;;;;5044516;28;20047;-58